Time;durP1;ratioP1;P1;durP2;ratioP2;P2;SDS_P1;SDS_P2;PMS_P1;PMS_P2;Temp;Humidity;BMP_temperature;BMP_pressure;BME280_temperature;BME280_humidity;BME280_pressure;Samples;Min_cycle;Max_cycle;Signal;HPM_P1;HPM_P2
2023/04/02 07:21:10;;;;;;;32.03;18.93;;;6.60;99.90;;;;;;5583642;23;20494;-56
2023/04/02 07:23:39;;;;;;;32.97;18.10;;;6.50;99.90;;;;;;4838891;29;20228;-57
2023/04/02 07:26:12;;;;;;;26.13;16.87;;;6.50;99.90;;;;;;4846616;29;20254;-57
2023/04/02 07:28:41;;;;;;;24.87;16.03;;;6.60;99.90;;;;;;4850184;29;20451;-58
2023/04/02 07:31:16;;;;;;;25.47;16.37;;;6.50;99.90;;;;;;4853929;29;20735;-57
2023/04/02 07:33:45;;;;;;;28.80;16.63;;;6.50;99.90;;;;;;4846181;29;21841;-57
2023/04/02 07:36:16;;;;;;;31.03;17.10;;;6.50;99.90;;;;;;4833174;29;20228;-57
2023/04/02 07:38:45;;;;;;;28.00;16.13;;;6.50;99.90;;;;;;4853664;29;20318;-57
2023/04/02 07:41:13;;;;;;;27.80;17.43;;;6.50;99.90;;;;;;4850693;29;20289;-57
2023/04/02 07:43:42;;;;;;;31.37;16.67;;;6.50;99.90;;;;;;4853776;29;20223;-56
2023/04/02 07:46:12;;;;;;;27.67;18.17;;;6.50;99.90;;;;;;4851209;29;20288;-54
2023/04/02 07:48:41;;;;;;;32.10;17.57;;;6.50;99.90;;;;;;4855813;29;20575;-57
2023/04/02 07:51:17;;;;;;;27.33;16.97;;;6.40;99.90;;;;;;4856009;29;20291;-57
2023/04/02 07:53:48;;;;;;;28.30;17.07;;;6.40;99.90;;;;;;4852888;29;20248;-55
2023/04/02 07:56:20;;;;;;;29.30;18.17;;;6.50;99.90;;;;;;4855113;29;20314;-56
2023/04/02 07:58:55;;;;;;;32.30;18.47;;;6.50;99.90;;;;;;5141224;23;21014;31
2023/04/02 08:01:27;;;;;;;31.43;19.83;;;6.40;99.90;;;;;;4814288;29;20244;-56
2023/04/02 08:03:56;;;;;;;32.10;19.30;;;6.50;99.90;;;;;;4830943;29;20211;-55
2023/04/02 08:06:27;;;;;;;34.60;20.87;;;6.60;99.90;;;;;;4831888;29;20265;-57
2023/04/02 08:08:56;;;;;;;36.40;21.23;;;6.50;99.90;;;;;;4843502;29;20232;-54
2023/04/02 08:11:24;;;;;;;36.73;22.20;;;6.50;99.90;;;;;;4849922;29;20240;-55
2023/04/02 08:13:53;;;;;;;46.93;22.13;;;6.50;99.90;;;;;;4852020;29;20251;-54
2023/04/02 08:16:22;;;;;;;35.73;21.47;;;6.50;99.90;;;;;;4854366;29;20212;-57
2023/04/02 08:18:51;;;;;;;43.90;22.37;;;6.40;99.90;;;;;;4856958;29;20227;-57
2023/04/02 08:21:20;;;;;;;37.33;20.43;;;6.40;99.90;;;;;;4857178;29;20223;-57
2023/04/02 08:23:50;;;;;;;34.20;20.17;;;6.50;99.90;;;;;;4856614;29;20753;-54
2023/04/02 08:26:18;;;;;;;37.30;20.07;;;6.50;99.90;;;;;;4854770;29;20616;-57
2023/04/02 08:28:47;;;;;;;36.33;20.63;;;6.50;99.90;;;;;;4863086;29;20252;-56
2023/04/02 08:31:15;;;;;;;31.53;19.43;;;6.50;99.90;;;;;;4860078;29;20662;-57
2023/04/02 08:33:44;;;;;;;37.17;19.77;;;6.50;99.90;;;;;;4854920;29;20251;-57
2023/04/02 08:36:16;;;;;;;33.83;18.57;;;6.40;99.90;;;;;;4860800;29;20251;-57
2023/04/02 08:38:45;;;;;;;28.13;18.60;;;6.40;99.90;;;;;;4857999;29;20705;-58
2023/04/02 08:41:26;;;;;;;29.67;19.77;;;6.30;99.90;;;;;;4851146;29;20220;-55
2023/04/02 08:44:09;;;;;;;29.80;19.47;;;6.40;99.90;;;;;;4856582;29;20223;-56
2023/04/02 08:46:44;;;;;;;34.50;19.40;;;6.40;99.90;;;;;;4861146;29;20251;-57
2023/04/02 08:49:16;;;;;;;29.30;18.10;;;6.40;99.90;;;;;;4859912;29;20199;-56
2023/04/02 08:51:47;;;;;;;31.87;20.13;;;6.40;99.90;;;;;;4862645;29;20258;-57
2023/04/02 08:54:21;;;;;;;33.90;20.70;;;6.40;99.90;;;;;;4838220;29;20255;-56
2023/04/02 08:56:55;;;;;;;32.73;20.70;;;6.50;99.90;;;;;;4859233;29;20254;-57
2023/04/02 08:59:30;;;;;;;29.37;19.13;;;6.50;99.90;;;;;;4861351;29;20382;-56
2023/04/02 09:02:20;;;;;;;29.40;18.50;;;6.50;99.90;;;;;;4853490;29;20231;-58
2023/04/02 09:04:49;;;;;;;24.13;16.97;;;6.50;99.90;;;;;;4857985;29;20252;-56
2023/04/02 09:07:18;;;;;;;25.43;17.33;;;6.60;99.90;;;;;;4860062;29;20192;-56
2023/04/02 09:09:48;;;;;;;23.33;16.83;;;6.70;99.90;;;;;;4851572;29;20295;-56
2023/04/02 09:12:19;;;;;;;26.57;18.40;;;6.80;99.90;;;;;;4854357;29;20343;-57
2023/04/02 09:14:59;;;;;;;27.27;17.77;;;6.90;99.90;;;;;;4851410;29;20235;-56
2023/04/02 09:17:28;;;;;;;24.50;16.97;;;7.00;99.90;;;;;;4854908;29;20235;-54
2023/04/02 09:20:07;;;;;;;21.93;15.37;;;6.90;99.90;;;;;;4852289;29;20226;-56
2023/04/02 09:22:37;;;;;;;26.10;17.83;;;6.80;99.90;;;;;;4858120;29;20639;-54
2023/04/02 09:25:11;;;;;;;30.30;19.17;;;6.80;99.90;;;;;;4856462;29;20199;-57
2023/04/02 09:27:41;;;;;;;38.43;19.93;;;6.80;99.90;;;;;;4862590;29;20267;-54
2023/04/02 09:30:21;;;;;;;32.03;19.80;;;6.80;99.90;;;;;;4854206;29;20270;-57
2023/04/02 09:32:52;;;;;;;27.67;19.67;;;6.80;99.90;;;;;;4853938;29;20227;-57
2023/04/02 09:35:22;;;;;;;28.77;18.50;;;6.80;99.90;;;;;;4854604;29;20334;-56
2023/04/02 09:38:23;;;;;;;31.30;20.60;;;6.70;99.90;;;;;;4853368;29;20717;-56
2023/04/02 09:40:58;;;;;;;32.13;20.00;;;6.80;99.90;;;;;;4857141;29;20191;-57
2023/04/02 09:43:30;;;;;;;33.73;20.43;;;6.80;99.90;;;;;;4856497;29;20255;-55
2023/04/02 09:46:01;;;;;;;29.10;21.07;;;6.70;99.90;;;;;;4852091;29;20264;-57
2023/04/02 09:48:32;;;;;;;26.87;19.67;;;6.80;99.90;;;;;;4850934;29;20250;-55
2023/04/02 09:51:06;;;;;;;22.57;16.20;;;6.90;99.90;;;;;;4857550;29;20235;-55
2023/04/02 09:53:37;;;;;;;18.53;13.67;;;6.90;99.90;;;;;;4854219;29;20231;-57
2023/04/02 09:56:13;;;;;;;20.87;14.43;;;6.90;99.90;;;;;;4853405;29;20231;-56
2023/04/02 09:58:46;;;;;;;22.73;13.97;;;6.90;99.90;;;;;;4856137;29;20228;-56
2023/04/02 10:01:28;;;;;;;19.67;14.57;;;6.90;99.90;;;;;;4853763;29;20235;-55
2023/04/02 10:03:58;;;;;;;24.10;15.23;;;6.80;99.90;;;;;;4853703;29;20260;-57
2023/04/02 10:06:29;;;;;;;20.37;15.13;;;6.80;99.90;;;;;;4853668;29;20238;-56
2023/04/02 10:08:57;;;;;;;25.27;16.03;;;6.80;99.90;;;;;;4859368;29;20223;-56
2023/04/02 10:11:30;;;;;;;22.27;16.40;;;6.80;99.90;;;;;;4850803;29;20227;-57
2023/04/02 10:14:19;;;;;;;21.27;16.73;;;6.90;99.90;;;;;;4851079;29;20718;-56
2023/04/02 10:16:52;;;;;;;24.30;16.60;;;6.80;99.90;;;;;;4855917;29;20629;-57
2023/04/02 10:19:27;;;;;;;29.00;17.60;;;6.80;99.90;;;;;;4856341;29;20676;-57
2023/04/02 10:21:57;;;;;;;24.77;16.27;;;6.80;99.90;;;;;;4853859;29;20222;-56
2023/04/02 10:24:28;;;;;;;24.60;16.43;;;6.90;99.90;;;;;;4864733;29;20302;-56
2023/04/02 10:27:15;;;;;;;23.20;17.03;;;6.90;99.90;;;;;;4853123;29;20238;-57
2023/04/02 10:30:09;;;;;;;25.47;16.20;;;7.00;99.90;;;;;;4856485;29;20848;-57
2023/04/02 10:32:44;;;;;;;22.23;13.20;;;7.00;99.90;;;;;;4848908;29;20223;-56
2023/04/02 10:35:21;;;;;;;22.50;14.17;;;7.10;99.90;;;;;;4857066;29;20230;-56
2023/04/02 10:38:15;;;;;;;25.47;14.93;;;7.00;99.90;;;;;;4854976;29;20562;-56
2023/04/02 10:40:48;;;;;;;27.87;14.50;;;7.00;99.90;;;;;;4852912;29;20200;-57
2023/04/02 10:43:39;;;;;;;15.73;11.50;;;7.10;99.90;;;;;;4853800;29;20207;-57
2023/04/02 10:46:17;;;;;;;22.43;13.20;;;6.90;99.90;;;;;;4836655;29;20239;-56
2023/04/02 10:48:53;;;;;;;16.23;13.03;;;7.00;99.90;;;;;;4851500;29;20234;-56
2023/04/02 10:51:32;;;;;;;22.37;12.10;;;7.20;99.90;;;;;;4854422;29;20222;-56
2023/04/02 10:54:08;;;;;;;16.53;11.67;;;7.50;99.90;;;;;;4852153;29;20234;-57
2023/04/02 10:56:37;;;;;;;16.60;12.50;;;7.50;99.90;;;;;;4856059;29;20231;-57
2023/04/02 10:59:23;;;;;;;15.63;12.20;;;7.80;99.90;;;;;;4853110;29;20258;-57
2023/04/02 11:01:55;;;;;;;14.27;11.57;;;8.00;99.90;;;;;;4856195;29;20204;-57
2023/04/02 11:04:27;;;;;;;20.37;12.90;;;7.80;99.90;;;;;;4857978;29;20207;-57
2023/04/02 11:07:00;;;;;;;15.57;12.70;;;7.70;99.90;;;;;;4854802;29;20242;-57
2023/04/02 11:09:44;;;;;;;15.07;12.40;;;7.90;99.90;;;;;;4852386;29;20227;-56
2023/04/02 11:12:20;;;;;;;13.27;11.30;;;7.80;99.90;;;;;;4855480;29;20231;-57
2023/04/02 11:14:50;;;;;;;17.53;11.93;;;8.10;99.90;;;;;;4856119;29;20239;-57
2023/04/02 11:17:21;;;;;;;17.80;13.43;;;8.20;99.90;;;;;;4848640;29;20228;-57
2023/04/02 11:19:49;;;;;;;20.07;15.03;;;8.30;99.90;;;;;;4853658;29;20206;-57
2023/04/02 11:22:20;;;;;;;24.00;16.20;;;8.10;99.90;;;;;;4857941;29;20662;-57
2023/04/02 11:24:49;;;;;;;20.63;15.20;;;8.20;99.90;;;;;;4830929;29;20695;-57
2023/04/02 11:27:29;;;;;;;18.47;13.87;;;8.20;99.90;;;;;;4851588;29;20982;-57
2023/04/02 11:30:04;;;;;;;19.40;12.77;;;8.10;99.90;;;;;;4855457;29;20254;-57
2023/04/02 11:32:41;;;;;;;17.87;13.83;;;8.30;99.90;;;;;;4849724;29;20278;-57
2023/04/02 11:35:26;;;;;;;17.20;12.80;;;8.30;99.90;;;;;;4857639;29;20753;-58
2023/04/02 11:37:57;;;;;;;19.13;13.73;;;8.40;99.90;;;;;;4847547;29;20712;-58
2023/04/02 11:40:48;;;;;;;17.53;12.40;;;8.40;99.90;;;;;;4851861;29;20210;-57
2023/04/02 11:43:48;;;;;;;15.77;11.33;;;8.20;99.90;;;;;;4854103;29;20255;-57
2023/04/02 11:46:47;;;;;;;18.47;12.90;;;8.00;99.90;;;;;;4853447;29;20227;-55
2023/04/02 11:49:37;;;;;;;16.03;12.77;;;7.90;99.90;;;;;;4858899;29;20231;-57
2023/04/02 11:52:21;;;;;;;16.63;14.07;;;8.00;99.90;;;;;;4855430;29;20227;-56
2023/04/02 11:55:02;;;;;;;15.23;13.63;;;8.00;99.90;;;;;;4849049;29;20258;-56
2023/04/02 11:58:25;;;;;;;21.57;14.93;;;8.00;99.90;;;;;;4856319;29;20222;-57
2023/04/02 12:01:21;;;;;;;17.23;14.33;;;7.90;99.90;;;;;;4811971;29;20291;-57
2023/04/02 12:04:16;;;;;;;20.13;14.60;;;7.70;99.90;;;;;;4858989;29;20283;-57
2023/04/02 12:07:00;;;;;;;15.93;13.70;;;7.70;99.90;;;;;;4842740;29;20268;-57
2023/04/02 12:09:31;;;;;;;21.83;14.30;;;7.60;99.90;;;;;;4858605;29;20243;-57
2023/04/02 12:12:01;;;;;;;18.93;13.03;;;7.70;99.90;;;;;;4857571;29;20288;-57
2023/04/02 12:14:42;;;;;;;17.30;13.17;;;7.80;99.90;;;;;;4853993;29;20280;-58
2023/04/02 12:17:18;;;;;;;17.20;12.47;;;7.90;99.90;;;;;;4854982;29;20227;-57
2023/04/02 12:19:51;;;;;;;16.07;10.90;;;7.90;99.90;;;;;;4856154;29;20279;-57
2023/04/02 12:22:24;;;;;;;14.67;10.67;;;7.90;99.90;;;;;;4853557;29;20570;-56
2023/04/02 12:24:55;;;;;;;14.03;9.67;;;7.90;99.90;;;;;;4853931;29;20681;-57
2023/04/02 12:27:26;;;;;;;14.47;9.43;;;7.90;99.90;;;;;;4860302;29;20243;-57
2023/04/02 12:29:56;;;;;;;13.37;10.63;;;7.80;99.90;;;;;;4861049;29;20319;-57
2023/04/02 12:32:27;;;;;;;14.93;9.97;;;7.70;99.90;;;;;;4855766;29;20223;-57
2023/04/02 12:35:00;;;;;;;12.93;10.10;;;7.70;99.90;;;;;;4858812;29;20327;-57
2023/04/02 12:37:30;;;;;;;14.13;10.40;;;7.60;99.90;;;;;;4854465;29;20207;-57
2023/04/02 12:40:05;;;;;;;11.10;9.90;;;7.60;99.90;;;;;;4859542;29;20685;-57
2023/04/02 12:42:35;;;;;;;14.07;10.53;;;7.50;99.90;;;;;;4854099;29;20690;-56
2023/04/02 12:45:05;;;;;;;14.97;11.07;;;7.50;99.90;;;;;;4856292;29;20283;-57
2023/04/02 12:47:34;;;;;;;21.40;16.27;;;7.50;99.90;;;;;;4852182;29;21039;-56
2023/04/02 12:50:02;;;;;;;26.60;15.27;;;7.30;99.90;;;;;;4857101;29;20219;-56
2023/04/02 12:52:32;;;;;;;18.97;13.33;;;7.40;99.90;;;;;;4855718;29;20203;-56
2023/04/02 12:55:02;;;;;;;17.10;12.17;;;7.50;99.90;;;;;;4855390;29;20227;-58
2023/04/02 12:57:34;;;;;;;15.57;12.47;;;7.60;99.90;;;;;;4859162;29;20239;-57
2023/04/02 13:00:33;;;;;;;11.77;10.57;;;7.70;99.90;;;;;;4858261;29;20238;-56
2023/04/02 13:03:18;;;;;;;13.03;10.17;;;7.60;99.90;;;;;;4851422;29;20572;-57
2023/04/02 13:05:51;;;;;;;10.17;9.17;;;7.60;99.90;;;;;;4856789;29;20230;-56
2023/04/02 13:08:22;;;;;;;11.80;9.10;;;7.60;99.90;;;;;;4853036;29;20686;-57
2023/04/02 13:10:56;;;;;;;11.33;9.23;;;7.60;99.90;;;;;;4848656;29;20555;-55
2023/04/02 13:13:29;;;;;;;12.57;10.53;;;7.70;99.90;;;;;;4855506;29;20196;-57
2023/04/02 13:16:06;;;;;;;13.03;10.53;;;7.80;99.90;;;;;;4850480;29;20276;-56
2023/04/02 13:18:36;;;;;;;14.77;11.37;;;7.60;99.90;;;;;;4853597;29;20223;-56
2023/04/02 13:21:05;;;;;;;13.73;10.90;;;7.70;99.90;;;;;;4853423;29;20744;-57
2023/04/02 13:23:36;;;;;;;15.83;11.57;;;7.70;99.90;;;;;;4857829;29;20232;-57
2023/04/02 13:26:17;;;;;;;15.67;11.33;;;7.70;99.90;;;;;;4855229;29;20283;-56
2023/04/02 13:28:59;;;;;;;15.17;10.90;;;7.40;99.90;;;;;;4855710;29;20287;-57
2023/04/02 13:31:30;;;;;;;14.43;11.97;;;7.50;99.90;;;;;;4853105;29;20203;-57
2023/04/02 13:34:00;;;;;;;16.97;12.60;;;7.50;99.90;;;;;;4853226;29;20236;-57
2023/04/02 13:36:28;;;;;;;21.03;11.80;;;7.50;99.90;;;;;;4851324;29;20232;-57
2023/04/02 13:38:57;;;;;;;16.07;10.90;;;7.60;99.90;;;;;;4857013;29;20642;-57
2023/04/02 13:41:27;;;;;;;11.37;9.47;;;7.70;99.90;;;;;;4850977;29;20228;-56
2023/04/02 13:43:58;;;;;;;11.40;9.20;;;7.70;99.90;;;;;;4854817;29;20234;-56
2023/04/02 13:46:30;;;;;;;12.83;9.83;;;7.70;99.90;;;;;;4858417;29;20647;-57
2023/04/02 13:48:59;;;;;;;15.80;10.93;;;7.70;99.90;;;;;;4848945;29;20239;-57
2023/04/02 13:51:35;;;;;;;13.93;11.70;;;7.80;99.90;;;;;;4855686;29;20295;-58
2023/04/02 13:54:10;;;;;;;15.80;10.90;;;7.90;99.90;;;;;;4852484;29;20693;-57
2023/04/02 13:56:40;;;;;;;16.30;10.40;;;7.90;99.90;;;;;;4858500;29;20716;-56
2023/04/02 13:59:08;;;;;;;10.80;9.70;;;7.90;99.90;;;;;;4851324;29;20227;-57
2023/04/02 14:01:38;;;;;;;13.90;11.53;;;7.60;99.90;;;;;;4846312;29;20230;-57
2023/04/02 14:04:07;;;;;;;16.13;12.60;;;7.60;99.90;;;;;;4852077;29;20200;-56
2023/04/02 14:07:02;;;;;;;21.17;13.80;;;7.60;99.90;;;;;;4853882;29;20698;-57
2023/04/02 14:09:40;;;;;;;16.47;12.60;;;7.60;99.90;;;;;;4849901;29;20219;-57
2023/04/02 14:12:17;;;;;;;17.07;12.33;;;7.40;99.90;;;;;;4854462;29;20758;-57
2023/04/02 14:15:05;;;;;;;15.90;11.20;;;7.60;99.90;;;;;;4854385;29;20301;-56
2023/04/02 14:17:46;;;;;;;14.90;10.93;;;7.70;99.90;;;;;;4858520;29;20227;-58
2023/04/02 14:20:30;;;;;;;16.13;11.50;;;7.60;99.90;;;;;;4853282;29;20257;-57
2023/04/02 14:23:25;;;;;;;18.87;12.67;;;7.60;99.90;;;;;;4850503;29;20260;-57
2023/04/02 14:26:01;;;;;;;19.70;13.37;;;7.40;99.90;;;;;;4854885;29;20758;-57
2023/04/02 14:28:40;;;;;;;19.23;13.53;;;7.30;99.90;;;;;;4854057;29;20195;-56
2023/04/02 14:31:19;;;;;;;18.00;13.27;;;7.40;99.90;;;;;;4847808;29;20664;-57
2023/04/02 14:33:57;;;;;;;18.93;12.57;;;7.60;99.90;;;;;;4852808;29;20229;-57
2023/04/02 14:36:35;;;;;;;15.10;12.17;;;7.60;99.90;;;;;;4856478;29;20222;-58
2023/04/02 14:39:09;;;;;;;15.57;12.50;;;7.50;99.90;;;;;;4851851;29;20223;-57
2023/04/02 14:41:46;;;;;;;12.90;11.57;;;7.40;99.90;;;;;;4856062;29;20227;-57
2023/04/02 14:44:16;;;;;;;16.33;11.70;;;7.30;99.90;;;;;;4851760;29;20255;-57
2023/04/02 14:46:45;;;;;;;14.23;11.63;;;7.40;99.90;;;;;;4859214;29;20203;-57
2023/04/02 14:49:24;;;;;;;15.87;12.17;;;7.50;99.90;;;;;;4853461;29;20192;-57
2023/04/02 14:51:57;;;;;;;16.23;11.90;;;7.60;99.90;;;;;;4866912;29;20290;-57
2023/04/02 14:54:33;;;;;;;18.83;11.57;;;7.60;99.90;;;;;;4853508;29;20264;-57
2023/04/02 14:57:10;;;;;;;14.37;11.33;;;7.60;99.90;;;;;;4854632;29;20574;-56
2023/04/02 14:59:49;;;;;;;14.97;11.70;;;7.60;99.90;;;;;;4856429;29;20268;-55
2023/04/02 15:02:24;;;;;;;23.70;12.57;;;7.60;99.90;;;;;;4856829;29;20663;-56
2023/04/02 15:04:59;;;;;;;17.90;11.50;;;7.70;99.90;;;;;;4853849;29;20284;-57
2023/04/02 15:07:35;;;;;;;19.80;11.83;;;7.70;99.90;;;;;;4853088;29;21197;-57
2023/04/02 15:10:08;;;;;;;14.97;11.97;;;7.50;99.90;;;;;;4853392;29;20239;-57
2023/04/02 15:12:40;;;;;;;15.10;10.97;;;7.50;99.90;;;;;;4853639;29;20253;-57
2023/04/02 15:15:19;;;;;;;12.77;10.13;;;7.50;99.90;;;;;;4851957;29;20222;-57
2023/04/02 15:18:08;;;;;;;16.17;11.07;;;7.50;99.90;;;;;;4853273;29;20320;-57
2023/04/02 15:20:45;;;;;;;12.37;9.83;;;7.50;99.90;;;;;;4857769;29;20657;-57
2023/04/02 15:23:22;;;;;;;17.40;10.50;;;7.30;99.90;;;;;;4860795;29;20238;-57
2023/04/02 15:26:00;;;;;;;14.10;10.00;;;7.10;99.90;;;;;;4859642;29;20278;-56
2023/04/02 15:28:33;;;;;;;10.53;9.33;;;7.10;99.90;;;;;;4860322;29;20195;-57
2023/04/02 15:31:06;;;;;;;15.60;11.20;;;7.20;99.90;;;;;;4861958;29;20211;-57
2023/04/02 15:33:45;;;;;;;13.77;11.13;;;7.20;99.90;;;;;;4853877;29;20235;-57
2023/04/02 15:36:46;;;;;;;13.97;11.87;;;7.10;99.90;;;;;;4859158;29;20281;-55
2023/04/02 15:39:41;;;;;;;14.13;12.00;;;7.30;99.90;;;;;;4858025;29;20289;-57
2023/04/02 15:42:17;;;;;;;16.13;12.27;;;7.30;99.90;;;;;;4857796;29;20283;-57
2023/04/02 15:45:09;;;;;;;14.93;11.53;;;7.30;99.90;;;;;;4859085;29;20237;-56
2023/04/02 15:47:45;;;;;;;12.73;10.43;;;7.40;99.90;;;;;;4859824;29;20243;-57
2023/04/02 15:50:34;;;;;;;15.73;10.67;;;7.30;99.90;;;;;;4858042;29;20227;-57
2023/04/02 15:53:17;;;;;;;13.33;10.00;;;7.40;99.90;;;;;;4855010;29;20724;-57
2023/04/02 15:55:49;;;;;;;12.43;9.50;;;7.50;99.90;;;;;;4857365;29;20199;-58
2023/04/02 15:58:24;;;;;;;13.60;9.17;;;7.40;99.90;;;;;;4857741;29;20187;-55
2023/04/02 16:01:03;;;;;;;10.27;8.47;;;7.50;99.90;;;;;;4856483;29;20294;-57
2023/04/02 16:03:48;;;;;;;10.10;7.60;;;7.50;99.90;;;;;;4858481;29;20264;-57
2023/04/02 16:06:26;;;;;;;8.80;7.03;;;7.50;99.90;;;;;;4856098;29;20718;-57
2023/04/02 16:09:17;;;;;;;5.67;5.03;;;7.60;99.90;;;;;;4853587;29;20413;-57
2023/04/02 16:11:46;;;;;;;5.20;4.80;;;7.70;99.90;;;;;;4851937;29;20227;-57
2023/04/02 16:14:24;;;;;;;5.13;4.70;;;7.70;99.90;;;;;;4853520;29;20242;-56
2023/04/02 16:16:57;;;;;;;5.03;4.53;;;7.80;99.90;;;;;;4857506;29;20255;-57
2023/04/02 16:19:32;;;;;;;7.77;4.80;;;7.70;99.90;;;;;;4855520;29;20207;-56
2023/04/02 16:22:05;;;;;;;4.87;4.43;;;7.70;99.90;;;;;;4855171;29;20218;-57
2023/04/02 16:24:35;;;;;;;4.77;4.40;;;7.70;99.90;;;;;;4859028;29;20706;-57
2023/04/02 16:27:17;;;;;;;4.80;4.10;;;7.70;99.90;;;;;;4857380;29;20690;-57
2023/04/02 16:30:00;;;;;;;4.77;4.30;;;7.70;99.90;;;;;;4852343;29;20778;-58
2023/04/02 16:32:56;;;;;;;4.23;3.77;;;7.70;99.90;;;;;;4852440;29;20227;-57
2023/04/02 16:35:32;;;;;;;3.77;3.57;;;7.60;99.90;;;;;;4857889;29;20223;-57
2023/04/02 16:38:15;;;;;;;3.37;3.17;;;7.50;99.90;;;;;;4856373;29;21032;-57
2023/04/02 16:40:54;;;;;;;3.60;3.30;;;7.40;99.90;;;;;;4857291;29;20239;-57
2023/04/02 16:43:48;;;;;;;3.20;3.10;;;7.40;99.90;;;;;;4857782;29;20200;-58
2023/04/02 16:46:22;;;;;;;4.80;4.40;;;7.40;99.90;;;;;;4856126;29;20661;-57
2023/04/02 16:49:23;;;;;;;3.73;3.43;;;7.40;99.90;;;;;;4857315;29;20735;-57
2023/04/02 16:51:59;;;;;;;6.30;4.40;;;7.40;99.90;;;;;;4858176;29;20227;-57
2023/04/02 16:54:31;;;;;;;3.90;3.60;;;7.50;99.90;;;;;;4857724;29;20235;-57
2023/04/02 16:57:18;;;;;;;3.53;3.43;;;7.50;99.90;;;;;;4856400;29;20227;-56
2023/04/02 16:59:57;;;;;;;4.63;3.60;;;7.70;99.90;;;;;;4851671;29;20356;-56
2023/04/02 17:02:38;;;;;;;3.50;3.40;;;7.80;99.90;;;;;;4852637;29;20227;-57
2023/04/02 17:05:19;;;;;;;3.40;3.20;;;7.80;99.90;;;;;;4858019;29;20241;-57
2023/04/02 17:08:00;;;;;;;4.27;3.93;;;7.60;99.90;;;;;;4856165;29;20276;-57
2023/04/02 17:10:31;;;;;;;4.00;3.70;;;7.60;99.90;;;;;;4855218;29;20244;-57
2023/04/02 17:13:13;;;;;;;4.77;3.73;;;7.50;99.90;;;;;;4852446;29;20223;-58
2023/04/02 17:15:45;;;;;;;3.97;3.70;;;7.40;99.90;;;;;;4852058;29;20280;-57
2023/04/02 17:18:17;;;;;;;4.33;3.93;;;7.40;99.90;;;;;;4852286;29;20305;-57
2023/04/02 17:20:46;;;;;;;4.37;3.70;;;7.30;99.90;;;;;;4849255;29;20284;-57
2023/04/02 17:23:16;;;;;;;4.27;3.97;;;7.30;99.90;;;;;;4854916;29;20713;-57
2023/04/02 17:25:50;;;;;;;4.13;3.83;;;7.20;99.90;;;;;;4857161;29;20211;-57
2023/04/02 17:28:25;;;;;;;3.70;3.47;;;7.10;99.90;;;;;;4853437;29;20194;-57
2023/04/02 17:30:56;;;;;;;4.03;3.73;;;7.10;99.90;;;;;;4851571;29;20219;-57
2023/04/02 17:33:27;;;;;;;4.40;4.10;;;7.00;99.90;;;;;;4849687;29;20283;-57
2023/04/02 17:36:21;;;;;;;4.30;3.90;;;6.90;99.90;;;;;;4851770;29;20263;-57
2023/04/02 17:39:02;;;;;;;4.20;3.90;;;6.80;99.90;;;;;;4839511;29;20314;-58
2023/04/02 17:41:38;;;;;;;4.33;4.00;;;6.80;99.90;;;;;;4851729;29;20224;-57
2023/04/02 17:44:23;;;;;;;5.97;3.83;;;6.70;99.90;;;;;;4851832;29;20238;-57
2023/04/02 17:46:59;;;;;;;4.20;3.90;;;6.60;99.90;;;;;;4852921;29;20693;-58
2023/04/02 17:49:40;;;;;;;4.13;3.83;;;6.50;99.90;;;;;;4856328;29;20206;-57
2023/04/02 17:52:15;;;;;;;4.20;3.83;;;6.40;99.90;;;;;;4855277;29;20734;-56
2023/04/02 17:54:52;;;;;;;4.70;4.20;;;6.40;99.90;;;;;;4853864;29;20279;-57
2023/04/02 17:57:35;;;;;;;4.17;3.90;;;6.20;99.90;;;;;;4853736;29;20302;-57
2023/04/02 18:00:18;;;;;;;4.67;4.23;;;6.20;99.90;;;;;;4858230;29;20243;-57
2023/04/02 18:03:01;;;;;;;4.73;4.33;;;6.10;99.90;;;;;;4855753;29;20272;-58
2023/04/02 18:05:35;;;;;;;6.00;5.00;;;6.00;99.90;;;;;;4848585;29;20312;-57
2023/04/02 18:08:13;;;;;;;5.00;4.63;;;5.90;99.90;;;;;;4855051;29;20227;-57
2023/04/02 18:10:51;;;;;;;5.40;4.90;;;5.80;99.90;;;;;;4847809;29;20520;-57
2023/04/02 18:13:31;;;;;;;5.77;4.97;;;5.70;99.90;;;;;;4852833;29;20600;-55
2023/04/02 18:16:16;;;;;;;5.47;5.03;;;5.70;99.90;;;;;;4851841;29;20739;-56
2023/04/02 18:19:08;;;;;;;6.77;5.50;;;5.70;99.90;;;;;;4857294;29;20326;-57
2023/04/02 18:21:45;;;;;;;5.63;5.13;;;5.60;99.90;;;;;;4851958;29;20223;-57
2023/04/02 18:24:41;;;;;;;10.50;7.47;;;5.40;99.90;;;;;;4856054;29;20694;-57
2023/04/02 18:27:22;;;;;;;10.57;7.30;;;5.40;99.90;;;;;;4847701;29;20263;-56
2023/04/02 18:29:59;;;;;;;9.47;7.53;;;5.30;99.90;;;;;;4856643;29;20251;-54
2023/04/02 18:32:55;;;;;;;11.93;9.10;;;5.20;99.90;;;;;;4854933;29;20268;-56
2023/04/02 18:35:27;;;;;;;17.47;13.10;;;5.10;99.90;;;;;;4852813;29;20295;-56
2023/04/02 18:38:13;;;;;;;20.77;14.07;;;5.00;99.90;;;;;;4851783;29;20249;-57
2023/04/02 18:40:50;;;;;;;23.73;17.83;;;4.90;99.90;;;;;;4851340;29;20223;-56
2023/04/02 18:43:32;;;;;;;26.00;18.17;;;4.80;99.90;;;;;;4859192;29;20210;-57
2023/04/02 18:46:11;;;;;;;31.33;19.57;;;4.70;99.90;;;;;;4856041;29;20227;-56
2023/04/02 18:48:46;;;;;;;25.67;17.73;;;4.60;99.90;;;;;;4853678;29;20770;-56
2023/04/02 18:51:18;;;;;;;18.23;12.73;;;4.50;99.90;;;;;;4855147;29;20614;-56
2023/04/02 18:53:47;;;;;;;18.50;13.10;;;4.40;99.90;;;;;;4858633;29;20219;-56
2023/04/02 18:56:18;;;;;;;22.30;13.63;;;4.30;99.90;;;;;;4840491;29;20238;-55
2023/04/02 18:58:55;;;;;;;12.87;9.53;;;4.30;99.90;;;;;;4856237;29;20195;-54
2023/04/02 19:01:30;;;;;;;7.83;6.13;;;4.10;99.90;;;;;;4851323;29;20673;-56
2023/04/02 19:04:05;;;;;;;8.17;6.80;;;4.00;99.90;;;;;;4852987;29;20675;-56
2023/04/02 19:06:36;;;;;;;10.43;7.17;;;3.90;99.90;;;;;;4852865;29;20233;-56
2023/04/02 19:09:12;;;;;;;11.97;7.77;;;3.80;99.90;;;;;;4851229;29;20222;-57
2023/04/02 19:11:40;;;;;;;11.73;8.33;;;3.80;99.90;;;;;;4849940;29;20211;-57
2023/04/02 19:14:13;;;;;;;10.90;9.00;;;3.70;99.90;;;;;;4854846;29;20640;-57
2023/04/02 19:17:02;;;;;;;13.80;9.13;;;3.70;99.90;;;;;;4851215;29;20223;-57
2023/04/02 19:19:38;;;;;;;12.00;7.97;;;3.60;99.90;;;;;;4850909;29;20207;-56
2023/04/02 19:22:15;;;;;;;11.87;7.83;;;3.60;99.90;;;;;;4853761;29;20223;-57
2023/04/02 19:25:13;;;;;;;12.53;7.83;;;3.50;99.90;;;;;;4854889;29;20230;-57
2023/04/02 19:28:00;;;;;;;15.30;7.90;;;3.40;99.90;;;;;;4853908;29;20287;-57
2023/04/02 19:30:48;;;;;;;13.73;8.30;;;3.30;99.90;;;;;;4855480;29;20279;-57
2023/04/02 19:33:39;;;;;;;13.53;7.73;;;3.30;99.90;;;;;;4852595;29;20258;-57
2023/04/02 19:36:21;;;;;;;14.00;7.80;;;3.20;99.90;;;;;;4855872;29;20272;-57
2023/04/02 19:39:00;;;;;;;12.93;8.37;;;3.10;99.90;;;;;;4849226;29;20226;-56
2023/04/02 19:41:34;;;;;;;13.87;7.90;;;3.10;99.90;;;;;;4851572;29;20279;-55
2023/04/02 19:44:02;;;;;;;16.07;9.07;;;3.10;99.90;;;;;;4854672;29;20239;-57
2023/04/02 19:46:31;;;;;;;15.83;8.73;;;3.00;99.90;;;;;;4849893;29;20568;-57
2023/04/02 19:49:05;;;;;;;13.70;9.57;;;2.90;99.90;;;;;;4854081;29;20593;-57
2023/04/02 19:51:34;;;;;;;14.67;9.57;;;2.90;99.90;;;;;;4852190;29;20295;-57
2023/04/02 19:54:03;;;;;;;13.90;9.60;;;2.90;99.90;;;;;;4854321;29;20280;-56
2023/04/02 19:56:32;;;;;;;17.30;10.37;;;2.80;99.90;;;;;;4855973;29;20227;-55
2023/04/02 19:59:00;;;;;;;17.20;10.07;;;2.80;99.90;;;;;;4855344;29;20283;-55
2023/04/02 20:01:44;;;;;;;19.77;10.07;;;2.70;99.90;;;;;;4852067;29;20196;-56
2023/04/02 20:04:12;;;;;;;22.00;11.70;;;2.70;99.90;;;;;;4857690;29;20267;-57
2023/04/02 20:06:41;;;;;;;16.23;10.67;;;2.60;99.90;;;;;;4855554;29;20234;-57
2023/04/02 20:09:10;;;;;;;18.93;10.87;;;2.60;99.90;;;;;;4854499;29;20227;-57
2023/04/02 20:11:39;;;;;;;17.30;10.53;;;2.50;99.90;;;;;;4854486;29;20238;-57
2023/04/02 20:14:07;;;;;;;19.53;11.10;;;2.50;99.90;;;;;;4860683;29;20242;-55
2023/04/02 20:16:37;;;;;;;17.43;11.33;;;2.40;99.90;;;;;;4857447;29;20294;-56
2023/04/02 20:19:06;;;;;;;21.83;12.30;;;2.40;99.90;;;;;;4855652;29;20215;-56
2023/04/02 20:21:36;;;;;;;18.40;12.23;;;2.40;99.90;;;;;;4850201;29;20774;-57
2023/04/02 20:24:08;;;;;;;23.87;13.97;;;2.30;99.90;;;;;;4857656;29;20224;-56
2023/04/02 20:26:36;;;;;;;24.93;15.70;;;2.30;99.90;;;;;;4858454;29;20275;-55
2023/04/02 20:29:05;;;;;;;27.63;15.77;;;2.30;99.90;;;;;;4857074;29;20258;-57
2023/04/02 20:31:33;;;;;;;27.37;16.93;;;2.30;99.90;;;;;;4857945;29;20200;-57
2023/04/02 20:34:05;;;;;;;29.73;17.23;;;2.30;99.90;;;;;;4859812;29;20188;-56
2023/04/02 20:36:33;;;;;;;33.40;18.90;;;2.40;99.90;;;;;;4857689;29;20606;-56
2023/04/02 20:39:02;;;;;;;24.77;15.80;;;2.40;99.90;;;;;;4860847;29;20223;-57
2023/04/02 20:41:32;;;;;;;23.23;14.67;;;2.40;99.90;;;;;;4854788;29;20236;-57
2023/04/02 20:44:00;;;;;;;27.00;15.80;;;2.30;99.90;;;;;;4856832;29;20235;-56
2023/04/02 20:46:29;;;;;;;23.33;15.87;;;2.30;99.90;;;;;;4853047;29;20207;-57